createdAt,value
2017-09-15T00:01:59.576Z,27.43
2017-09-15T00:04:26.680Z,32.63
2017-09-15T00:06:53.603Z,26.10
2017-09-15T00:09:20.444Z,27.00
2017-09-15T00:11:47.271Z,25.30
2017-09-15T00:14:14.068Z,36.43
2017-09-15T00:16:41.204Z,26.20
2017-09-15T00:19:08.030Z,30.20
2017-09-15T00:21:34.827Z,32.53
2017-09-15T00:24:01.688Z,31.17
2017-09-15T00:26:28.516Z,31.23
2017-09-15T00:28:55.344Z,31.10
2017-09-15T00:31:22.203Z,34.43
2017-09-15T00:33:49.318Z,40.57
2017-09-15T00:36:16.136Z,37.40
2017-09-15T00:38:43.204Z,25.13
2017-09-15T00:41:10.009Z,36.03
2017-09-15T00:43:36.844Z,25.63
2017-09-15T00:46:03.684Z,27.43
2017-09-15T00:48:30.512Z,31.80
2017-09-15T00:50:57.624Z,27.10
2017-09-15T00:53:24.548Z,24.87
2017-09-15T00:55:51.387Z,22.90
2017-09-15T00:58:18.458Z,25.53
2017-09-15T01:00:45.305Z,27.53
2017-09-15T01:03:12.115Z,34.43
2017-09-15T01:05:39.195Z,20.97
2017-09-15T01:08:06.038Z,19.13
2017-09-15T01:10:32.853Z,19.50
2017-09-15T01:12:59.933Z,19.93
2017-09-15T01:15:26.758Z,20.87
2017-09-15T01:17:53.564Z,20.00
2017-09-15T01:20:20.369Z,14.83
2017-09-15T01:22:47.209Z,16.43
2017-09-15T01:25:14.244Z,21.60
2017-09-15T01:27:41.056Z,15.93
2017-09-15T01:30:08.135Z,48.00
2017-09-15T01:32:34.965Z,26.83
2017-09-15T01:35:02.132Z,29.20
2017-09-15T01:37:28.952Z,25.30
2017-09-15T01:39:56.019Z,23.00
2017-09-15T01:42:22.854Z,20.13
2017-09-15T01:44:49.690Z,19.80
2017-09-15T01:47:16.860Z,12.07
2017-09-15T01:49:43.684Z,17.83
2017-09-15T01:52:10.532Z,16.80
2017-09-15T01:54:37.697Z,13.53
2017-09-15T01:57:04.508Z,14.37
2017-09-15T01:59:31.355Z,17.60
2017-09-15T02:01:58.433Z,9.50
2017-09-15T02:04:25.240Z,18.67
2017-09-15T02:06:52.080Z,15.27
2017-09-15T02:09:18.876Z,14.67
2017-09-15T02:11:45.696Z,12.80
2017-09-15T02:14:12.536Z,13.10
2017-09-15T02:16:39.364Z,11.00
2017-09-15T02:19:06.151Z,11.53
2017-09-15T02:21:33.022Z,18.37
2017-09-15T02:23:59.820Z,9.80
2017-09-15T02:26:26.612Z,14.13
2017-09-15T02:28:53.448Z,12.07
2017-09-15T02:31:20.260Z,9.23
2017-09-15T02:33:47.397Z,17.07
2017-09-15T02:36:14.208Z,9.87
2017-09-15T02:38:41.003Z,14.50
2017-09-15T02:41:07.834Z,8.27
2017-09-15T02:43:34.679Z,10.43
2017-09-15T02:46:01.482Z,17.50
2017-09-15T02:48:28.552Z,13.63
2017-09-15T02:50:55.371Z,11.90
2017-09-15T02:53:22.156Z,24.80
2017-09-15T02:55:48.952Z,15.97
2017-09-15T02:58:16.027Z,19.53
2017-09-15T03:00:42.852Z,17.27
2017-09-15T03:03:09.643Z,24.43
2017-09-15T03:05:36.497Z,8.23
2017-09-15T03:08:03.288Z,17.63
2017-09-15T03:10:30.116Z,15.47
2017-09-15T03:12:57.288Z,8.77
2017-09-15T03:15:24.079Z,9.47
2017-09-15T03:17:51.180Z,25.07
2017-09-15T03:20:18.333Z,21.17
2017-09-15T03:22:45.132Z,14.27
2017-09-15T03:25:11.924Z,12.40
2017-09-15T03:27:38.761Z,13.90
2017-09-15T03:30:05.560Z,22.40
2017-09-15T03:32:32.353Z,13.90
2017-09-15T03:34:59.188Z,27.83
2017-09-15T03:37:26.004Z,17.27
2017-09-15T03:39:52.836Z,17.20
2017-09-15T03:42:19.919Z,15.40
2017-09-15T03:44:46.715Z,19.63
2017-09-15T03:47:13.532Z,31.80
2017-09-15T03:49:40.347Z,25.67
2017-09-15T03:52:07.150Z,24.10
2017-09-15T03:54:34.233Z,15.10
2017-09-15T03:57:01.074Z,19.83
2017-09-15T03:59:27.864Z,11.10
2017-09-15T04:01:54.656Z,15.70
2017-09-15T04:04:21.816Z,15.70
2017-09-15T04:06:48.608Z,16.83
2017-09-15T04:09:15.404Z,12.13
2017-09-15T04:11:42.295Z,19.13
2017-09-15T04:14:09.391Z,29.60
2017-09-15T04:16:36.196Z,26.87
2017-09-15T04:19:03.040Z,26.00
2017-09-15T04:21:29.833Z,25.30
2017-09-15T04:23:56.628Z,11.63
2017-09-15T04:26:23.464Z,15.50
2017-09-15T04:28:50.268Z,17.57
2017-09-15T04:31:17.100Z,27.00
2017-09-15T04:33:43.940Z,15.90
2017-09-15T04:36:10.728Z,20.90
2017-09-15T04:38:37.516Z,17.17
2017-09-15T04:41:04.337Z,14.37
2017-09-15T04:43:31.464Z,18.37
2017-09-15T04:45:58.279Z,26.23
2017-09-15T04:48:25.153Z,29.17
2017-09-15T04:50:51.985Z,28.10
2017-09-15T04:53:19.202Z,14.30
2017-09-15T04:55:46.077Z,15.73
2017-09-15T04:58:12.906Z,34.17
2017-09-15T05:00:39.737Z,19.70
2017-09-15T05:03:06.630Z,17.03
2017-09-15T05:05:33.485Z,17.60
2017-09-15T05:08:00.345Z,23.33
2017-09-15T05:10:27.215Z,11.37
2017-09-15T05:12:54.269Z,12.93
2017-09-15T05:15:21.143Z,15.93
2017-09-15T05:17:47.978Z,30.43
2017-09-15T05:20:14.853Z,19.53
2017-09-15T05:22:42.036Z,23.43
2017-09-15T05:25:09.186Z,16.30
2017-09-15T05:27:36.008Z,6.80
2017-09-15T05:30:03.066Z,11.60
2017-09-15T05:32:29.963Z,13.73
2017-09-15T05:34:56.790Z,14.20
2017-09-15T05:37:24.013Z,34.80
2017-09-15T05:39:50.905Z,12.00
2017-09-15T05:42:17.766Z,10.43
2017-09-15T05:44:44.646Z,23.60
2017-09-15T05:47:11.721Z,12.10
2017-09-15T05:49:38.601Z,22.17
2017-09-15T05:52:05.465Z,10.20
2017-09-15T05:54:32.314Z,11.63
2017-09-15T05:56:59.145Z,13.63
2017-09-15T05:59:25.978Z,15.37
2017-09-15T06:01:52.838Z,15.87
2017-09-15T06:04:20.003Z,12.10
2017-09-15T06:06:46.850Z,16.90
2017-09-15T06:09:13.701Z,10.17
2017-09-15T06:11:40.569Z,12.63
2017-09-15T06:14:07.413Z,20.20
2017-09-15T06:16:34.245Z,13.87
2017-09-15T06:19:01.109Z,11.30
2017-09-15T06:21:27.949Z,14.17
2017-09-15T06:23:54.806Z,9.00
2017-09-15T06:26:21.641Z,11.03
2017-09-15T06:28:48.489Z,12.37
2017-09-15T06:31:15.362Z,13.50
2017-09-15T06:33:42.527Z,11.73
2017-09-15T06:36:09.379Z,17.60
2017-09-15T06:38:36.229Z,20.50
2017-09-15T06:41:03.057Z,15.50
2017-09-15T06:43:30.210Z,13.70
2017-09-15T06:45:57.049Z,9.60
2017-09-15T06:48:24.201Z,13.47
2017-09-15T06:50:51.059Z,20.00
2017-09-15T06:53:18.197Z,11.63
2017-09-15T06:55:45.077Z,15.00
2017-09-15T06:58:11.981Z,13.67
2017-09-15T07:00:38.841Z,9.40
2017-09-15T07:03:05.755Z,12.43
2017-09-15T07:05:32.613Z,14.10
2017-09-15T07:07:59.445Z,12.47
2017-09-15T07:10:26.273Z,9.30
2017-09-15T07:12:53.451Z,11.63
2017-09-15T07:15:20.353Z,14.50
2017-09-15T07:17:47.442Z,13.47
2017-09-15T07:20:14.598Z,9.13
2017-09-15T07:22:41.515Z,16.77
2017-09-15T07:25:08.373Z,12.40
2017-09-15T07:27:35.230Z,11.63
2017-09-15T07:30:02.082Z,13.77
2017-09-15T07:32:29.221Z,8.80
2017-09-15T07:34:56.088Z,8.93
2017-09-15T07:37:23.320Z,11.47
2017-09-15T07:39:50.473Z,12.20
2017-09-15T07:42:17.321Z,14.00
2017-09-15T07:44:44.176Z,12.80
2017-09-15T07:47:11.323Z,14.27
2017-09-15T07:49:38.165Z,8.03
2017-09-15T07:52:05.041Z,15.87
2017-09-15T07:54:31.869Z,13.00
2017-09-15T07:56:58.691Z,10.33
2017-09-15T07:59:25.533Z,10.90
2017-09-15T08:01:52.665Z,9.53
2017-09-15T08:04:19.509Z,14.60
2017-09-15T08:06:46.332Z,8.87
2017-09-15T08:09:13.158Z,9.77
2017-09-15T08:11:40.016Z,17.20
2017-09-15T08:14:06.861Z,14.23
2017-09-15T08:16:33.766Z,12.83
2017-09-15T08:19:00.882Z,9.33
2017-09-15T08:21:27.698Z,9.23
2017-09-15T08:23:54.549Z,11.40
2017-09-15T08:26:21.725Z,7.73
2017-09-15T08:28:48.865Z,6.67
2017-09-15T08:31:15.713Z,13.20
2017-09-15T08:33:42.573Z,12.20
2017-09-15T08:36:09.697Z,12.87
2017-09-15T08:38:36.850Z,13.70
2017-09-15T08:41:03.732Z,11.87
2017-09-15T08:43:30.549Z,9.00
2017-09-15T08:45:57.398Z,10.80
2017-09-15T08:48:24.529Z,8.10
2017-09-15T08:50:51.682Z,8.80
2017-09-15T08:53:18.525Z,14.07
2017-09-15T08:55:45.680Z,15.37
2017-09-15T08:58:12.542Z,10.23
2017-09-15T09:00:39.366Z,11.47
2017-09-15T09:03:06.514Z,8.40
2017-09-15T09:05:33.375Z,8.03
2017-09-15T09:08:00.233Z,5.97
2017-09-15T09:10:27.070Z,10.00
2017-09-15T09:12:54.189Z,11.67
2017-09-15T09:15:21.069Z,4.73
2017-09-15T09:17:47.898Z,8.37
2017-09-15T09:20:14.716Z,5.10
2017-09-15T09:22:41.869Z,13.77
2017-09-15T09:25:08.693Z,7.70
2017-09-15T09:27:35.866Z,5.57
2017-09-15T09:30:02.710Z,6.73
2017-09-15T09:32:29.558Z,6.57
2017-09-15T09:34:56.697Z,9.20
2017-09-15T09:37:23.850Z,7.43
2017-09-15T09:39:50.709Z,5.93
2017-09-15T09:42:17.789Z,6.20
2017-09-15T09:44:44.889Z,7.87
2017-09-15T09:47:11.741Z,3.50
2017-09-15T09:49:38.580Z,5.93
2017-09-15T09:52:05.425Z,6.90
2017-09-15T09:54:32.250Z,10.67
2017-09-15T09:56:59.074Z,6.60
2017-09-15T09:59:26.158Z,4.33
2017-09-15T10:01:53.013Z,5.93
2017-09-15T10:04:19.849Z,5.00
2017-09-15T10:06:46.989Z,5.20
2017-09-15T10:09:13.802Z,3.80
2017-09-15T10:11:40.662Z,9.40
2017-09-15T10:14:07.505Z,6.70
2017-09-15T10:16:34.375Z,5.83
2017-09-15T10:19:01.513Z,3.57
2017-09-15T10:21:28.354Z,4.93
2017-09-15T10:23:55.505Z,6.67
2017-09-15T10:26:22.353Z,5.80
2017-09-15T10:28:49.217Z,5.10
2017-09-15T10:31:16.070Z,5.80
2017-09-15T10:33:43.189Z,3.83
2017-09-15T10:36:10.069Z,9.47
2017-09-15T10:38:36.891Z,4.27
2017-09-15T10:41:03.753Z,6.60
2017-09-15T10:43:30.577Z,7.23
2017-09-15T10:45:57.426Z,10.60
2017-09-15T10:48:24.278Z,8.50
2017-09-15T10:50:51.102Z,4.50
2017-09-15T10:53:18.165Z,6.40
2017-09-15T10:55:45.286Z,5.07
2017-09-15T10:58:12.113Z,5.13
2017-09-15T11:00:38.992Z,5.30
2017-09-15T11:03:05.825Z,5.27
2017-09-15T11:05:32.706Z,3.20
2017-09-15T11:07:59.538Z,7.90
2017-09-15T11:10:26.357Z,3.50
2017-09-15T11:12:53.202Z,4.63
2017-09-15T11:15:20.053Z,8.23
2017-09-15T11:17:47.055Z,4.63
2017-09-15T11:20:14.233Z,5.20
2017-09-15T11:22:41.080Z,6.90
2017-09-15T11:25:08.149Z,6.30
2017-09-15T11:27:35.264Z,4.10
2017-09-15T11:30:02.416Z,2.60
2017-09-15T11:32:29.209Z,4.30
2017-09-15T11:34:55.996Z,6.33
2017-09-15T11:37:22.808Z,8.30
2017-09-15T11:39:49.647Z,5.13
2017-09-15T11:42:16.467Z,3.77
2017-09-15T11:44:43.300Z,10.47
2017-09-15T11:47:10.412Z,6.03
2017-09-15T11:49:37.568Z,7.17
2017-09-15T11:52:04.376Z,4.60
2017-09-15T11:54:31.208Z,2.10
2017-09-15T11:56:58.011Z,7.07
2017-09-15T11:59:24.823Z,4.87
2017-09-15T12:01:51.674Z,5.50
2017-09-15T12:04:18.728Z,5.17
2017-09-15T12:06:45.880Z,5.23
2017-09-15T12:09:12.688Z,3.40
2017-09-15T12:11:39.505Z,1.30
2017-09-15T12:14:06.361Z,2.07
2017-09-15T12:16:33.168Z,3.10
2017-09-15T12:18:59.995Z,4.53
2017-09-15T12:21:26.852Z,3.80
2017-09-15T12:23:53.673Z,6.07
2017-09-15T12:26:20.829Z,4.37
2017-09-15T12:28:47.632Z,8.13
2017-09-15T12:31:14.455Z,6.60
2017-09-15T12:33:41.236Z,5.03
2017-09-15T12:36:08.041Z,3.20
2017-09-15T12:38:34.876Z,4.47
2017-09-15T12:41:01.703Z,2.93
2017-09-15T12:43:28.582Z,3.37
2017-09-15T12:45:55.403Z,9.13
2017-09-15T12:48:22.524Z,5.00
2017-09-15T12:50:49.324Z,4.30
2017-09-15T12:53:16.113Z,1.53
2017-09-15T12:55:43.158Z,3.20
2017-09-15T12:58:09.972Z,4.27
2017-09-15T13:00:36.761Z,2.67
2017-09-15T13:03:03.616Z,4.60
2017-09-15T13:05:30.460Z,4.30
2017-09-15T13:07:57.568Z,1.80
2017-09-15T13:10:24.401Z,3.37
2017-09-15T13:12:51.212Z,3.10
2017-09-15T13:15:18.032Z,3.53
2017-09-15T13:17:45.052Z,7.47
2017-09-15T13:20:11.872Z,7.20
2017-09-15T13:22:38.937Z,4.70
2017-09-15T13:25:05.764Z,2.07
2017-09-15T13:27:32.552Z,3.90
2017-09-15T13:29:59.380Z,2.73
2017-09-15T13:32:26.203Z,3.30
2017-09-15T13:34:53.360Z,4.63
2017-09-15T13:37:20.176Z,3.33
2017-09-15T13:39:47.247Z,9.87
2017-09-15T13:42:14.065Z,5.23
2017-09-15T13:44:40.917Z,3.43
2017-09-15T13:47:07.723Z,5.20
2017-09-15T13:49:34.541Z,4.63
2017-09-15T13:52:01.369Z,8.97
2017-09-15T13:54:28.437Z,5.20
2017-09-15T13:56:55.271Z,4.50
2017-09-15T13:59:22.056Z,4.23
2017-09-15T14:01:48.877Z,4.10
2017-09-15T14:04:15.696Z,3.53
2017-09-15T14:06:42.500Z,4.33
2017-09-15T14:09:09.345Z,5.30
2017-09-15T14:11:36.377Z,7.50
2017-09-15T14:14:03.192Z,7.97
2017-09-15T14:16:30.306Z,6.00
2017-09-15T14:18:57.112Z,7.30
2017-09-15T14:21:23.952Z,2.87
2017-09-15T14:23:51.035Z,8.53
2017-09-15T14:26:17.873Z,3.20
2017-09-15T14:28:44.696Z,4.10
2017-09-15T14:31:11.538Z,10.33
2017-09-15T14:33:38.616Z,6.67
2017-09-15T14:36:05.421Z,3.97
2017-09-15T14:38:32.219Z,6.30
2017-09-15T14:40:59.157Z,4.30
2017-09-15T14:43:26.009Z,4.07
2017-09-15T14:45:52.799Z,5.63
2017-09-15T14:48:19.614Z,5.60
2017-09-15T14:50:46.435Z,3.63
2017-09-15T14:53:13.256Z,9.23
2017-09-15T14:55:40.260Z,4.40
2017-09-15T14:58:07.079Z,5.23
2017-09-15T15:00:33.948Z,11.40
2017-09-15T15:03:00.757Z,5.60
2017-09-15T15:05:27.835Z,3.20
2017-09-15T15:07:54.740Z,6.50
2017-09-15T15:10:21.548Z,8.80
2017-09-15T15:12:48.348Z,9.20
2017-09-15T15:15:15.433Z,4.90
2017-09-15T15:17:42.311Z,10.27
2017-09-15T15:20:09.321Z,9.83
2017-09-15T15:22:36.131Z,5.73
2017-09-15T15:25:03.167Z,7.53
2017-09-15T15:27:30.099Z,7.80
2017-09-15T15:29:57.040Z,6.00
2017-09-15T15:32:23.849Z,7.17
2017-09-15T15:34:50.656Z,8.43
2017-09-15T15:37:17.743Z,9.43
2017-09-15T15:39:45.025Z,8.90
2017-09-15T15:42:11.857Z,10.37
2017-09-15T15:44:38.908Z,5.07
2017-09-15T15:47:05.957Z,11.10
2017-09-15T15:49:32.793Z,10.90
2017-09-15T15:51:59.601Z,5.43
2017-09-15T15:54:26.408Z,4.80
2017-09-15T15:56:53.204Z,10.87
2017-09-15T15:59:19.992Z,7.00
2017-09-15T16:01:46.798Z,9.57
2017-09-15T16:04:13.588Z,7.53
2017-09-15T16:06:40.405Z,9.17
2017-09-15T16:09:07.224Z,8.10
2017-09-15T16:11:34.016Z,7.63
2017-09-15T16:14:00.852Z,9.30
2017-09-15T16:16:27.689Z,11.43
2017-09-15T16:18:54.493Z,7.33
2017-09-15T16:24:06.356Z,6.57
2017-09-15T16:26:33.238Z,5.07
2017-09-15T16:29:00.192Z,4.40
2017-09-15T16:31:27.114Z,6.30
2017-09-15T16:33:54.024Z,7.20
2017-09-15T16:36:20.920Z,16.83
2017-09-15T16:38:47.825Z,7.13
2017-09-15T16:41:14.704Z,7.23
2017-09-15T16:43:41.602Z,6.63
2017-09-15T16:46:08.524Z,8.70
2017-09-15T16:48:35.384Z,8.40
2017-09-15T16:51:02.274Z,5.70
2017-09-15T16:53:29.386Z,4.37
2017-09-15T16:55:56.759Z,9.83
2017-09-15T16:58:24.045Z,3.40
2017-09-15T17:00:51.647Z,2.97
2017-09-15T17:03:18.823Z,3.07
2017-09-15T17:05:45.937Z,3.60
2017-09-15T17:08:12.810Z,3.50
2017-09-15T17:10:39.645Z,5.27
2017-09-15T17:13:06.774Z,6.10
2017-09-15T17:15:33.653Z,12.30
2017-09-15T17:18:00.501Z,10.13
2017-09-15T17:20:27.351Z,5.53
2017-09-15T17:22:54.219Z,3.33
2017-09-15T17:25:21.067Z,4.50
2017-09-15T17:27:47.915Z,4.20
2017-09-15T17:30:14.762Z,3.90
2017-09-15T17:32:41.599Z,3.80
2017-09-15T17:35:08.486Z,11.17
2017-09-15T17:37:35.397Z,4.47
2017-09-15T17:40:02.250Z,4.87
2017-09-15T17:42:29.097Z,11.23
2017-09-15T17:44:55.946Z,4.53
2017-09-15T17:47:22.798Z,7.47
2017-09-15T17:49:49.933Z,6.90
2017-09-15T17:52:17.090Z,6.43
2017-09-15T17:54:43.917Z,6.20
2017-09-15T17:57:10.765Z,5.57
2017-09-15T17:59:37.829Z,7.40
2017-09-15T18:02:04.695Z,8.77
2017-09-15T18:04:31.814Z,8.90
2017-09-15T18:06:58.733Z,12.53
2017-09-15T18:09:25.910Z,10.00
2017-09-15T18:11:52.757Z,7.50
2017-09-15T18:14:19.621Z,7.30
2017-09-15T18:16:46.439Z,8.87
2017-09-15T18:19:14.118Z,11.57
2017-09-15T18:21:40.986Z,13.50
2017-09-15T18:24:07.847Z,7.57
2017-09-15T18:26:34.678Z,11.60
2017-09-15T18:29:01.878Z,10.40
2017-09-15T18:31:29.036Z,6.73
2017-09-15T18:33:55.887Z,12.00
2017-09-15T18:36:22.984Z,13.43
2017-09-15T18:38:49.797Z,9.80
2017-09-15T18:41:16.917Z,14.87
2017-09-15T18:43:43.804Z,14.30
2017-09-15T18:46:10.674Z,10.77
2017-09-15T18:48:37.563Z,11.77
2017-09-15T18:51:04.401Z,14.03
2017-09-15T18:53:31.538Z,9.40
2017-09-15T18:55:58.365Z,11.23
2017-09-15T18:58:25.257Z,11.60
2017-09-15T19:00:52.110Z,10.10
2017-09-15T19:03:18.990Z,15.87
2017-09-15T19:05:46.172Z,14.53
2017-09-15T19:08:13.037Z,15.03
2017-09-15T19:10:39.885Z,11.33
2017-09-15T19:13:06.755Z,12.10
2017-09-15T19:15:33.611Z,11.07
2017-09-15T19:18:00.425Z,11.67
2017-09-15T19:20:27.297Z,10.73
2017-09-15T19:22:54.142Z,10.30
2017-09-15T19:25:21.013Z,10.90
2017-09-15T19:27:47.906Z,10.03
2017-09-15T19:30:14.858Z,12.50
2017-09-15T19:32:41.688Z,11.50
2017-09-15T19:35:08.689Z,12.10
2017-09-15T19:37:35.597Z,13.07
2017-09-15T19:40:02.430Z,11.13
2017-09-15T19:42:29.511Z,15.90
2017-09-15T19:44:56.412Z,10.97
2017-09-15T19:47:23.522Z,15.00
2017-09-15T19:49:50.677Z,12.77
2017-09-15T19:52:17.529Z,11.37
2017-09-15T19:54:44.379Z,9.20
2017-09-15T19:57:11.226Z,15.70
2017-09-15T19:59:38.058Z,12.47
2017-09-15T20:02:04.883Z,11.30
2017-09-15T20:04:32.033Z,12.10
2017-09-15T20:06:58.918Z,11.83
2017-09-15T20:09:25.749Z,11.70
2017-09-15T20:11:52.627Z,9.67
2017-09-15T20:14:19.766Z,14.50
2017-09-15T20:16:46.776Z,11.13
2017-09-15T20:19:13.691Z,10.80
2017-09-15T20:21:40.627Z,8.10
2017-09-15T20:24:07.458Z,10.73
2017-09-15T20:26:34.360Z,11.70
2017-09-15T20:29:01.493Z,10.40
2017-09-15T20:31:28.658Z,12.30
2017-09-15T20:33:55.814Z,10.73
2017-09-15T20:36:22.939Z,12.67
2017-09-15T20:38:50.099Z,16.67
2017-09-15T20:41:17.211Z,12.50
2017-09-15T20:43:44.054Z,10.07
2017-09-15T20:46:10.913Z,11.13
2017-09-15T20:48:38.416Z,10.93
2017-09-15T20:51:05.547Z,73.90
2017-09-15T20:53:32.517Z,15.17
2017-09-15T20:55:59.425Z,15.47
2017-09-15T20:58:26.282Z,11.40
2017-09-15T21:00:53.239Z,10.30
2017-09-15T21:03:20.137Z,14.87
2017-09-15T21:05:47.103Z,11.93
2017-09-15T21:08:13.993Z,13.47
2017-09-15T21:10:40.869Z,11.63
2017-09-15T21:13:08.046Z,12.80
2017-09-15T21:15:35.198Z,14.40
2017-09-15T21:18:02.093Z,10.60
2017-09-15T21:20:28.962Z,9.80
2017-09-15T21:22:55.918Z,10.93
2017-09-15T21:25:22.842Z,10.80
2017-09-15T21:27:49.714Z,10.87
2017-09-15T21:30:16.557Z,7.60
2017-09-15T21:32:43.709Z,9.40
2017-09-15T21:35:10.557Z,9.73
2017-09-15T21:37:37.398Z,13.57
2017-09-15T21:40:04.310Z,8.20
2017-09-15T21:42:31.156Z,9.27
2017-09-15T21:44:58.344Z,9.27
2017-09-15T21:47:25.189Z,6.57
2017-09-15T21:49:52.033Z,9.00
2017-09-15T21:52:18.894Z,11.20
2017-09-15T21:54:45.781Z,8.53
2017-09-15T21:57:12.609Z,8.00
2017-09-15T21:59:39.811Z,10.47
2017-09-15T22:02:06.650Z,8.37
2017-09-15T22:04:33.564Z,8.87
2017-09-15T22:07:00.441Z,7.50
2017-09-15T22:09:27.301Z,7.63
2017-09-15T22:11:54.531Z,11.20
2017-09-15T22:14:21.351Z,12.30
2017-09-15T22:16:48.213Z,7.53
2017-09-15T22:19:15.369Z,8.83
2017-09-15T22:21:42.235Z,9.90
2017-09-15T22:24:09.358Z,9.80
2017-09-15T22:26:36.510Z,12.97
2017-09-15T22:29:03.358Z,11.50
2017-09-15T22:31:30.245Z,9.10
2017-09-15T22:33:57.063Z,11.67
2017-09-15T22:36:23.877Z,12.60
2017-09-15T22:38:50.754Z,9.80
2017-09-15T22:41:17.881Z,10.73
2017-09-15T22:43:45.555Z,15.77
2017-09-15T22:46:12.433Z,15.73
2017-09-15T22:48:39.280Z,17.43
2017-09-15T22:51:06.129Z,16.83
2017-09-15T22:53:33.018Z,11.83
2017-09-15T22:56:00.169Z,14.60
2017-09-15T22:58:27.335Z,21.73
2017-09-15T23:00:54.214Z,17.47
2017-09-15T23:03:21.049Z,20.00
2017-09-15T23:05:48.157Z,19.33
2017-09-15T23:08:15.005Z,13.30
2017-09-15T23:10:42.149Z,12.77
2017-09-15T23:13:08.994Z,19.23
2017-09-15T23:15:36.142Z,25.33
2017-09-15T23:18:03.292Z,17.23
2017-09-15T23:20:30.445Z,16.13
2017-09-15T23:22:57.317Z,17.30
2017-09-15T23:25:24.194Z,14.00
2017-09-15T23:27:51.017Z,15.20
2017-09-15T23:30:17.893Z,15.83
2017-09-15T23:32:44.769Z,18.53
2017-09-15T23:35:11.625Z,18.90
2017-09-15T23:37:38.505Z,17.40
2017-09-15T23:40:05.702Z,20.33
2017-09-15T23:42:32.849Z,20.30
2017-09-15T23:44:59.693Z,13.33
2017-09-15T23:47:26.542Z,17.90
2017-09-15T23:49:53.681Z,22.63
2017-09-15T23:52:20.526Z,21.40
2017-09-15T23:54:47.373Z,19.13
2017-09-15T23:57:14.240Z,17.40
2017-09-15T23:59:41.113Z,16.23
